Time,TemperatureF,DewpointF,PressureIn,WindDirection,WindDirectionDegrees,WindSpeedMPH,WindSpeedGustMPH,Humidity,HourlyPrecipIn,Conditions,Clouds,dailyrainin,SoftwareType,DateUTC
2013-10-24 00:12:00,31.0,28.0,30.16,ENE,58,0.0,0.0,89,0.00,,,0.00,,2013-10-24 06:12:00,
2013-10-24 00:21:00,30.0,27.0,30.17,ENE,58,0.0,0.0,89,0.00,,,0.00,,2013-10-24 06:21:00,
2013-10-24 00:42:00,30.0,27.0,30.18,ENE,58,0.0,0.0,90,0.00,,,0.00,,2013-10-24 06:42:00,
2013-10-24 00:52:00,29.0,26.0,30.18,ENE,58,0.0,0.0,90,0.00,,,0.00,,2013-10-24 06:52:00,
2013-10-24 01:12:00,29.0,26.0,30.18,ENE,58,0.0,0.0,90,0.00,,,0.00,,2013-10-24 07:12:00,
2013-10-24 01:21:00,29.0,26.0,30.19,ENE,58,0.0,0.0,90,0.00,,,0.00,,2013-10-24 07:21:00,
2013-10-24 01:42:00,29.0,27.0,30.19,ENE,58,0.0,0.0,91,0.00,,,0.00,,2013-10-24 07:42:00,
2013-10-24 01:52:00,28.0,26.0,30.19,ENE,58,0.0,0.0,91,0.00,,,0.00,,2013-10-24 07:52:00,
2013-10-24 02:11:00,28.0,25.0,30.19,ENE,58,0.0,0.0,90,0.00,,,0.00,,2013-10-24 08:11:00,
2013-10-24 02:22:00,27.0,24.0,30.19,ENE,58,0.0,0.0,90,0.00,,,0.00,,2013-10-24 08:22:00,
2013-10-24 02:42:00,27.0,25.0,30.19,ENE,58,0.0,0.0,91,0.00,,,0.00,,2013-10-24 08:42:00,
2013-10-24 02:53:00,26.0,23.0,30.19,ENE,58,0.0,0.0,90,0.00,,,0.00,,2013-10-24 08:53:00,
2013-10-24 03:12:00,26.0,24.0,30.19,ENE,58,0.0,0.0,91,0.00,,,0.00,,2013-10-24 09:12:00,
2013-10-24 03:22:00,26.0,24.0,30.19,ENE,58,0.0,0.0,91,0.00,,,0.00,,2013-10-24 09:22:00,
2013-10-24 03:43:00,26.0,24.0,30.19,ENE,58,0.0,0.0,91,0.00,,,0.00,,2013-10-24 09:43:00,
2013-10-24 03:53:00,26.0,24.0,30.19,ENE,58,0.0,0.0,92,0.00,,,0.00,,2013-10-24 09:53:00,
2013-10-24 04:12:00,26.0,24.0,30.19,ENE,58,0.0,3.0,92,0.00,,,0.00,,2013-10-24 10:12:00,
2013-10-24 04:23:00,26.0,24.0,30.19,ENE,58,0.0,0.0,92,0.00,,,0.00,,2013-10-24 10:23:00,
2013-10-24 04:43:00,25.0,23.0,30.19,ENE,58,0.0,0.0,91,0.00,,,0.00,,2013-10-24 10:43:00,
2013-10-24 04:52:00,25.0,23.0,30.19,ENE,58,0.0,0.0,92,0.00,,,0.00,,2013-10-24 10:52:00,
2013-10-24 05:12:00,24.0,22.0,30.19,ENE,58,0.0,0.0,91,0.00,,,0.00,,2013-10-24 11:12:00,
2013-10-24 05:22:00,24.0,22.0,30.20,ENE,58,0.0,0.0,92,0.00,,,0.00,,2013-10-24 11:22:00,
2013-10-24 05:42:00,24.0,22.0,30.20,ENE,58,0.0,0.0,92,0.00,,,0.00,,2013-10-24 11:42:00,
2013-10-24 05:52:00,23.0,21.0,30.21,ENE,58,0.0,0.0,91,0.00,,,0.00,,2013-10-24 11:52:00,
2013-10-24 06:12:00,23.0,21.0,30.20,ENE,58,0.0,0.0,91,0.00,,,0.00,,2013-10-24 12:12:00,
2013-10-24 06:22:00,23.0,21.0,30.21,ENE,58,0.0,0.0,91,0.00,,,0.00,,2013-10-24 12:22:00,
2013-10-24 06:42:00,23.0,21.0,30.21,ENE,58,0.0,0.0,91,0.00,,,0.00,,2013-10-24 12:42:00,
2013-10-24 06:51:00,23.0,21.0,30.21,ENE,58,0.0,0.0,92,0.00,,,0.00,,2013-10-24 12:51:00,
2013-10-24 06:52:00,23.0,21.0,30.21,ENE,58,0.0,0.0,92,0.00,,,0.00,,2013-10-24 12:52:00,
2013-10-24 07:12:00,23.0,21.0,30.21,ENE,58,0.0,0.0,92,0.00,,,0.00,,2013-10-24 13:12:00,
2013-10-24 07:22:00,23.0,21.0,30.21,ENE,58,0.0,0.0,92,0.00,,,0.00,,2013-10-24 13:22:00,
2013-10-24 07:32:00,23.0,21.0,30.21,ENE,58,0.0,0.0,92,0.00,,,0.00,,2013-10-24 13:32:00,
2013-10-24 07:42:00,23.0,21.0,30.21,ENE,58,0.0,0.0,92,0.00,,,0.00,,2013-10-24 13:42:00,
2013-10-24 10:23:00,29.0,27.0,30.23,ENE,58,0.0,0.0,94,0.00,,,0.00,,2013-10-24 16:23:00,
2013-10-24 10:42:00,31.0,29.0,30.23,ENE,71,0.0,0.0,94,0.00,,,0.00,,2013-10-24 16:42:00,
2013-10-24 10:53:00,32.0,30.0,30.23,ENE,71,0.0,0.0,94,0.00,,,0.00,,2013-10-24 16:53:00,
2013-10-24 11:12:00,33.0,31.0,30.23,ENE,71,0.0,0.0,94,0.00,,,0.00,,2013-10-24 17:12:00,
2013-10-24 11:22:00,34.0,32.0,30.23,ENE,71,0.0,0.0,94,0.00,,,0.00,,2013-10-24 17:22:00,
2013-10-24 11:43:00,35.0,33.0,30.23,ENE,71,0.0,0.0,93,0.00,,,0.00,,2013-10-24 17:43:00,
2013-10-24 11:52:00,36.0,33.0,30.23,ENE,71,0.0,0.0,90,0.00,,,0.00,,2013-10-24 17:52:00,
2013-10-24 12:12:00,37.0,34.0,30.22,ENE,71,0.0,0.0,88,0.00,,,0.00,,2013-10-24 18:12:00,
2013-10-24 12:23:00,39.0,35.0,30.22,ENE,71,0.0,0.0,84,0.00,,,0.00,,2013-10-24 18:23:00,
2013-10-24 12:42:00,40.0,34.0,30.22,ENE,71,0.0,0.0,80,0.00,,,0.00,,2013-10-24 18:42:00,
2013-10-24 12:53:00,42.0,35.0,30.20,ENE,71,1.0,4.0,75,0.00,,,0.00,,2013-10-24 18:53:00,
2013-10-24 13:11:00,44.0,35.0,30.19,East,84,1.0,6.0,70,0.00,,,0.00,,2013-10-24 19:11:00,
2013-10-24 13:22:00,45.0,34.0,30.19,ESE,113,2.0,5.0,66,0.00,,,0.00,,2013-10-24 19:22:00,
2013-10-24 13:43:00,46.0,35.0,30.18,ESE,119,1.0,4.0,64,0.00,,,0.00,,2013-10-24 19:43:00,
2013-10-24 13:53:00,46.0,33.0,30.17,ESE,119,1.0,7.0,60,0.00,,,0.00,,2013-10-24 19:53:00,
2013-10-24 14:11:00,47.0,33.0,30.17,ESE,119,0.0,3.0,59,0.00,,,0.00,,2013-10-24 20:11:00,
2013-10-24 14:23:00,47.0,33.0,30.16,ESE,120,1.0,8.0,59,0.00,,,0.00,,2013-10-24 20:23:00,
2013-10-24 14:42:00,48.0,34.0,30.15,ESE,120,0.0,5.0,57,0.00,,,0.00,,2013-10-24 20:42:00,
2013-10-24 14:53:00,49.0,34.0,30.14,SSE,150,3.0,7.0,56,0.00,,,0.00,,2013-10-24 20:53:00,
2013-10-24 15:12:00,48.0,33.0,30.14,SSE,155,0.0,4.0,55,0.00,,,0.00,,2013-10-24 21:12:00,
2013-10-24 15:22:00,49.0,34.0,30.13,SSE,155,2.0,5.0,55,0.00,,,0.00,,2013-10-24 21:22:00,
2013-10-24 15:43:00,49.0,34.0,30.13,SSE,155,3.0,5.0,55,0.00,,,0.00,,2013-10-24 21:43:00,
2013-10-24 15:54:00,50.0,34.0,30.12,SSE,155,0.0,0.0,53,0.00,,,0.00,,2013-10-24 21:54:00,
2013-10-24 16:14:00,50.0,34.0,30.12,SSE,155,1.0,4.0,53,0.00,,,0.00,,2013-10-24 22:14:00,
2013-10-24 16:24:00,50.0,33.0,30.11,SSE,155,0.0,3.0,52,0.00,,,0.00,,2013-10-24 22:24:00,
2013-10-24 16:43:00,50.0,33.0,30.11,SSE,155,2.0,4.0,51,0.00,,,0.00,,2013-10-24 22:43:00,
2013-10-24 16:54:00,50.0,33.0,30.10,SSE,154,0.0,2.0,51,0.00,,,0.00,,2013-10-24 22:54:00,
2013-10-24 17:13:00,50.0,33.0,30.10,SSE,154,0.0,0.0,51,0.00,,,0.00,,2013-10-24 23:13:00,
2013-10-24 17:22:00,50.0,32.0,30.09,SSE,154,0.0,0.0,50,0.00,,,0.00,,2013-10-24 23:22:00,
2013-10-24 17:43:00,50.0,32.0,30.09,SSE,154,0.0,0.0,50,0.00,,,0.00,,2013-10-24 23:43:00,
2013-10-24 17:53:00,50.0,32.0,30.08,SSE,154,0.0,0.0,50,0.00,,,0.00,,2013-10-24 23:53:00,
2013-10-24 18:12:00,49.0,32.0,30.08,SSE,154,0.0,0.0,52,0.00,,,0.00,,2013-10-25 00:12:00,
2013-10-24 18:22:00,48.0,32.0,30.08,SSE,154,0.0,0.0,53,0.00,,,0.00,,2013-10-25 00:22:00,
2013-10-24 18:42:00,47.0,31.0,30.07,SSE,154,0.0,0.0,54,0.00,,,0.00,,2013-10-25 00:42:00,
2013-10-24 18:52:00,46.0,32.0,30.07,SSE,154,0.0,0.0,59,0.00,,,0.00,,2013-10-25 00:52:00,
2013-10-24 19:12:00,43.0,31.0,30.07,SSE,154,0.0,0.0,63,0.00,,,0.00,,2013-10-25 01:12:00,
2013-10-24 19:21:00,42.0,32.0,30.06,SSE,154,0.0,0.0,67,0.00,,,0.00,,2013-10-25 01:21:00,
2013-10-24 19:43:00,40.0,31.0,30.06,SSE,154,0.0,0.0,69,0.00,,,0.00,,2013-10-25 01:43:00,
2013-10-24 19:53:00,40.0,31.0,30.06,SSE,154,0.0,0.0,71,0.00,,,0.00,,2013-10-25 01:53:00,
2013-10-24 20:12:00,40.0,31.0,30.05,SSE,154,0.0,0.0,70,0.00,,,0.00,,2013-10-25 02:12:00,
2013-10-24 20:23:00,38.0,30.0,30.05,SSE,154,0.0,0.0,72,0.00,,,0.00,,2013-10-25 02:23:00,
2013-10-24 20:42:00,37.0,30.0,30.05,SSE,154,0.0,0.0,75,0.00,,,0.00,,2013-10-25 02:42:00,
2013-10-24 20:52:00,36.0,29.0,30.05,SSE,154,1.0,4.0,77,0.00,,,0.00,,2013-10-25 02:52:00,
2013-10-24 21:12:00,37.0,31.0,30.05,SSE,154,0.0,0.0,78,0.00,,,0.00,,2013-10-25 03:12:00,
2013-10-24 21:23:00,36.0,30.0,30.05,SSE,154,0.0,0.0,78,0.00,,,0.00,,2013-10-25 03:23:00,
2013-10-24 21:44:00,36.0,30.0,30.04,SSE,154,0.0,0.0,79,0.00,,,0.00,,2013-10-25 03:44:00,
2013-10-24 21:54:00,36.0,30.0,30.04,SSE,154,0.0,0.0,79,0.00,,,0.00,,2013-10-25 03:54:00,
2013-10-24 22:14:00,36.0,30.0,30.04,SSE,154,0.0,0.0,78,0.00,,,0.00,,2013-10-25 04:14:00,
2013-10-24 22:24:00,35.0,29.0,30.04,SSE,154,0.0,1.0,80,0.00,,,0.00,,2013-10-25 04:24:00,
2013-10-24 22:44:00,35.0,30.0,30.04,SSE,154,0.0,0.0,82,0.00,,,0.00,,2013-10-25 04:44:00,
2013-10-24 22:54:00,35.0,30.0,30.04,SSE,154,0.0,0.0,82,0.00,,,0.00,,2013-10-25 04:54:00,
2013-10-24 23:03:00,35.0,30.0,30.04,SSE,154,0.0,0.0,82,0.00,,,0.00,,2013-10-25 05:03:00,